Time,TemperatureF,DewpointF,PressureIn,WindDirection,WindDirectionDegrees,WindSpeedMPH,WindSpeedGustMPH,Humidity,HourlyPrecipIn,Conditions,Clouds,dailyrainin,SoftwareType,DateUTC
2013-07-21 00:06:00,72.1,67.0,29.90,NE,52,6.0,-999.0,85,-99.99,,,0.00,weatherlink.com 1.10,2013-07-20 21:06:00,
2013-07-21 00:21:00,72.0,67.0,29.89,ENE,58,7.0,-999.0,85,-99.99,,,0.00,weatherlink.com 1.10,2013-07-20 21:21:00,
2013-07-21 00:36:00,72.0,67.0,29.89,NE,44,5.0,-999.0,85,-99.99,,,0.00,weatherlink.com 1.10,2013-07-20 21:36:00,
2013-07-21 00:53:00,72.0,67.0,29.89,NE,39,4.0,-999.0,84,-99.99,,,0.00,weatherlink.com 1.10,2013-07-20 21:53:00,
2013-07-21 01:06:00,71.7,67.0,29.89,NE,38,4.0,-999.0,85,-99.99,,,0.00,weatherlink.com 1.10,2013-07-20 22:06:00,
2013-07-21 01:21:00,71.1,67.0,29.89,North,355,3.0,-999.0,86,-99.99,,,0.00,weatherlink.com 1.10,2013-07-20 22:21:00,
2013-07-21 01:36:00,70.9,67.0,29.89,NNE,20,3.0,-999.0,87,-99.99,,,0.00,weatherlink.com 1.10,2013-07-20 22:36:00,
2013-07-21 02:06:00,70.7,67.0,29.88,NNE,19,2.0,-999.0,87,-99.99,,,0.00,weatherlink.com 1.10,2013-07-20 23:06:00,
2013-07-21 02:21:00,70.1,67.0,29.88,NNE,19,1.0,-999.0,88,-99.99,,,0.00,weatherlink.com 1.10,2013-07-20 23:21:00,
2013-07-21 02:38:00,68.9,66.0,29.88,NW,318,1.0,-999.0,90,-99.99,,,0.00,weatherlink.com 1.10,2013-07-20 23:38:00,
2013-07-21 02:51:00,68.6,66.0,29.88,North,5,4.0,-999.0,92,-99.99,,,0.00,weatherlink.com 1.10,2013-07-20 23:51:00,
2013-07-21 03:06:00,70.0,67.0,29.88,North,351,1.0,-999.0,91,-99.99,,,0.00,weatherlink.com 1.10,2013-07-21 00:06:00,
2013-07-21 03:22:00,69.1,66.0,29.89,NNE,32,3.0,-999.0,91,-99.99,,,0.00,weatherlink.com 1.10,2013-07-21 00:22:00,
2013-07-21 04:06:00,70.3,67.0,29.89,NNE,24,4.0,-999.0,90,-99.99,,,0.00,weatherlink.com 1.10,2013-07-21 01:06:00,
2013-07-21 04:23:00,69.5,67.0,29.88,NNE,28,7.0,-999.0,92,-99.99,,,0.00,weatherlink.com 1.10,2013-07-21 01:23:00,
2013-07-21 04:51:00,68.9,66.0,29.88,NNE,31,0.0,-999.0,91,-99.99,,,0.00,weatherlink.com 1.10,2013-07-21 01:51:00,
2013-07-21 05:08:00,69.2,67.0,29.88,North,11,3.0,-999.0,93,-99.99,,,0.00,weatherlink.com 1.10,2013-07-21 02:08:00,
2013-07-21 05:22:00,68.5,66.0,29.89,NW,311,3.0,-999.0,92,-99.99,,,0.00,weatherlink.com 1.10,2013-07-21 02:22:00,
2013-07-21 05:39:00,68.0,66.0,29.88,NW,307,2.0,-999.0,93,-99.99,,,0.00,weatherlink.com 1.10,2013-07-21 02:39:00,
2013-07-21 05:52:00,68.3,67.0,29.89,NW,318,2.0,-999.0,94,-99.99,,,0.00,weatherlink.com 1.10,2013-07-21 02:52:00,
2013-07-21 06:07:00,69.4,68.0,29.89,NNE,17,4.0,-999.0,94,-99.99,,,0.00,weatherlink.com 1.10,2013-07-21 03:07:00,
2013-07-21 06:23:00,70.1,68.0,29.89,NNE,22,5.0,-999.0,93,-99.99,,,0.00,weatherlink.com 1.10,2013-07-21 03:23:00,
2013-07-21 06:36:00,70.5,68.0,29.89,NNW,344,0.0,-999.0,92,-99.99,,,0.00,weatherlink.com 1.10,2013-07-21 03:36:00,
2013-07-21 06:51:00,70.4,68.0,29.90,NNE,14,6.0,-999.0,93,-99.99,,,0.00,weatherlink.com 1.10,2013-07-21 03:51:00,
2013-07-21 07:07:00,71.3,69.0,29.89,NNE,14,8.0,-999.0,91,-99.99,,,0.00,weatherlink.com 1.10,2013-07-21 04:07:00,
2013-07-21 07:22:00,72.2,69.0,29.90,NNE,28,2.0,-999.0,89,-99.99,,,0.00,weatherlink.com 1.10,2013-07-21 04:22:00,
2013-07-21 07:37:00,72.6,69.0,29.90,NNE,32,13.0,-999.0,87,-99.99,,,0.00,weatherlink.com 1.10,2013-07-21 04:37:00,
2013-07-21 07:56:00,73.1,69.0,29.90,NNE,18,4.0,-999.0,87,-99.99,,,0.00,weatherlink.com 1.10,2013-07-21 04:56:00,
2013-07-21 08:23:00,73.8,68.0,29.91,NE,41,7.0,-999.0,83,-99.99,,,0.00,weatherlink.com 1.10,2013-07-21 05:23:00,
2013-07-21 08:40:00,74.5,68.0,29.91,NNW,338,6.0,-999.0,81,-99.99,,,0.00,weatherlink.com 1.10,2013-07-21 05:40:00,
2013-07-21 09:07:00,75.6,69.0,29.92,North,360,12.0,-999.0,79,-99.99,,,0.00,weatherlink.com 1.10,2013-07-21 06:07:00,
2013-07-21 09:22:00,76.5,68.0,29.92,North,360,7.0,-999.0,76,-99.99,,,0.00,weatherlink.com 1.10,2013-07-21 06:22:00,
2013-07-21 09:37:00,76.9,67.0,29.92,NE,40,13.0,-999.0,72,-99.99,,,0.00,weatherlink.com 1.10,2013-07-21 06:37:00,
2013-07-21 09:52:00,77.1,66.0,29.91,NE,44,9.0,-999.0,69,-99.99,,,0.00,weatherlink.com 1.10,2013-07-21 06:52:00,
2013-07-21 10:07:00,78.0,66.0,29.92,NE,41,11.0,-999.0,66,-99.99,,,0.00,weatherlink.com 1.10,2013-07-21 07:07:00,
2013-07-21 10:22:00,78.8,65.0,29.91,NE,39,9.0,-999.0,62,-99.99,,,0.00,weatherlink.com 1.10,2013-07-21 07:22:00,
2013-07-21 10:37:00,79.7,64.0,29.91,NNE,26,13.0,-999.0,59,-99.99,,,0.00,weatherlink.com 1.10,2013-07-21 07:37:00,
2013-07-21 10:52:00,80.0,64.0,29.92,NE,49,7.0,-999.0,58,-99.99,,,0.00,weatherlink.com 1.10,2013-07-21 07:52:00,
2013-07-21 11:07:00,80.6,63.0,29.92,NE,41,6.0,-999.0,55,-99.99,,,0.00,weatherlink.com 1.10,2013-07-21 08:07:00,
2013-07-21 11:22:00,81.3,64.0,29.92,North,360,6.0,-999.0,55,-99.99,,,0.00,weatherlink.com 1.10,2013-07-21 08:22:00,
2013-07-21 11:37:00,81.6,62.0,29.92,NNE,28,6.0,-999.0,52,-99.99,,,0.00,weatherlink.com 1.10,2013-07-21 08:37:00,
2013-07-21 11:52:00,82.2,63.0,29.92,North,350,6.0,-999.0,53,-99.99,,,0.00,weatherlink.com 1.10,2013-07-21 08:52:00,
2013-07-21 12:07:00,82.0,64.0,29.92,North,5,9.0,-999.0,54,-99.99,,,0.00,weatherlink.com 1.10,2013-07-21 09:07:00,
2013-07-21 12:22:00,82.3,63.0,29.92,NE,41,10.0,-999.0,53,-99.99,,,0.00,weatherlink.com 1.10,2013-07-21 09:22:00,
2013-07-21 12:38:00,82.0,62.0,29.92,NNW,346,6.0,-999.0,50,-99.99,,,0.00,weatherlink.com 1.10,2013-07-21 09:38:00,
2013-07-21 12:53:00,82.7,61.0,29.92,NE,36,11.0,-999.0,48,-99.99,,,0.00,weatherlink.com 1.10,2013-07-21 09:53:00,
2013-07-21 13:08:00,82.5,63.0,29.92,North,355,6.0,-999.0,52,-99.99,,,0.00,weatherlink.com 1.10,2013-07-21 10:08:00,
2013-07-21 13:23:00,82.2,63.0,29.92,North,351,12.0,-999.0,52,-99.99,,,0.00,weatherlink.com 1.10,2013-07-21 10:23:00,
2013-07-21 13:38:00,82.7,63.0,29.93,North,360,13.0,-999.0,52,-99.99,,,0.00,weatherlink.com 1.10,2013-07-21 10:38:00,
2013-07-21 13:53:00,82.5,63.0,29.93,North,5,14.0,-999.0,51,-99.99,,,0.00,weatherlink.com 1.10,2013-07-21 10:53:00,
2013-07-21 14:08:00,82.8,62.0,29.93,NNW,337,8.0,-999.0,50,-99.99,,,0.00,weatherlink.com 1.10,2013-07-21 11:08:00,
2013-07-21 14:23:00,82.2,62.0,29.93,NNE,22,9.0,-999.0,51,-99.99,,,0.00,weatherlink.com 1.10,2013-07-21 11:23:00,
2013-07-21 14:38:00,81.9,61.0,29.92,NNE,17,8.0,-999.0,50,-99.99,,,0.00,weatherlink.com 1.10,2013-07-21 11:38:00,
2013-07-21 14:53:00,82.4,60.0,29.92,North,11,13.0,-999.0,47,-99.99,,,0.00,weatherlink.com 1.10,2013-07-21 11:53:00,
2013-07-21 15:08:00,82.2,61.0,29.92,North,9,9.0,-999.0,48,-99.99,,,0.00,weatherlink.com 1.10,2013-07-21 12:08:00,
2013-07-21 15:23:00,81.8,60.0,29.92,NNE,13,7.0,-999.0,48,-99.99,,,0.00,weatherlink.com 1.10,2013-07-21 12:23:00,
2013-07-21 15:38:00,81.5,62.0,29.92,NNW,346,12.0,-999.0,51,-99.99,,,0.00,weatherlink.com 1.10,2013-07-21 12:38:00,
2013-07-21 15:53:00,81.5,65.0,29.93,NNE,16,10.0,-999.0,58,-99.99,,,0.00,weatherlink.com 1.10,2013-07-21 12:53:00,
2013-07-21 16:08:00,81.0,65.0,29.93,North,11,15.0,-999.0,58,-99.99,,,0.00,weatherlink.com 1.10,2013-07-21 13:08:00,
2013-07-21 16:23:00,80.1,65.0,29.93,North,5,14.0,-999.0,61,-99.99,,,0.00,weatherlink.com 1.10,2013-07-21 13:23:00,
2013-07-21 16:38:00,79.6,65.0,29.93,NE,39,10.0,-999.0,61,-99.99,,,0.00,weatherlink.com 1.10,2013-07-21 13:38:00,
2013-07-21 16:53:00,79.8,66.0,29.93,NW,322,17.0,-999.0,63,-99.99,,,0.00,weatherlink.com 1.10,2013-07-21 13:53:00,
2013-07-21 17:08:00,78.7,67.0,29.93,NNW,344,19.0,-999.0,68,-99.99,,,0.00,weatherlink.com 1.10,2013-07-21 14:08:00,
2013-07-21 17:23:00,78.4,67.0,29.93,NNW,340,19.0,-999.0,68,-99.99,,,0.00,weatherlink.com 1.10,2013-07-21 14:23:00,
2013-07-21 17:38:00,78.3,67.0,29.93,NNE,32,14.0,-999.0,68,-99.99,,,0.00,weatherlink.com 1.10,2013-07-21 14:38:00,
2013-07-21 17:53:00,77.1,67.0,29.93,North,5,16.0,-999.0,71,-99.99,,,0.00,weatherlink.com 1.10,2013-07-21 14:53:00,
2013-07-21 18:08:00,77.6,68.0,29.93,NE,37,12.0,-999.0,71,-99.99,,,0.00,weatherlink.com 1.10,2013-07-21 15:08:00,
2013-07-21 18:23:00,77.0,68.0,29.93,North,11,23.0,-999.0,73,-99.99,,,0.00,weatherlink.com 1.10,2013-07-21 15:23:00,
2013-07-21 18:38:00,76.8,68.0,29.93,NE,39,17.0,-999.0,73,-99.99,,,0.00,weatherlink.com 1.10,2013-07-21 15:38:00,
2013-07-21 18:53:00,76.2,68.0,29.92,NNE,17,17.0,-999.0,76,-99.99,,,0.00,weatherlink.com 1.10,2013-07-21 15:53:00,
2013-07-21 19:08:00,76.0,68.0,29.93,NNE,13,15.0,-999.0,75,-99.99,,,0.00,weatherlink.com 1.10,2013-07-21 16:08:00,
2013-07-21 19:23:00,75.6,68.0,29.93,North,5,18.0,-999.0,78,-99.99,,,0.00,weatherlink.com 1.10,2013-07-21 16:23:00,
2013-07-21 19:38:00,74.9,67.0,29.93,NNE,32,12.0,-999.0,77,-99.99,,,0.00,weatherlink.com 1.10,2013-07-21 16:38:00,
2013-07-21 19:53:00,74.8,68.0,29.93,NE,49,34.0,-999.0,78,-99.99,,,0.00,weatherlink.com 1.10,2013-07-21 16:53:00,
2013-07-21 20:08:00,74.5,68.0,29.94,NNE,13,10.0,-999.0,80,-99.99,,,0.00,weatherlink.com 1.10,2013-07-21 17:08:00,
2013-07-21 20:23:00,74.1,68.0,29.94,NE,44,16.0,-999.0,80,-99.99,,,0.00,weatherlink.com 1.10,2013-07-21 17:23:00,
2013-07-21 20:38:00,73.9,68.0,29.95,North,5,21.0,-999.0,81,-99.99,,,0.00,weatherlink.com 1.10,2013-07-21 17:38:00,
2013-07-21 20:53:00,73.6,67.0,29.96,NNE,26,11.0,-999.0,81,-99.99,,,0.00,weatherlink.com 1.10,2013-07-21 17:53:00,
2013-07-21 21:08:00,73.4,67.0,29.97,North,5,13.0,-999.0,81,-99.99,,,0.00,weatherlink.com 1.10,2013-07-21 18:08:00,
2013-07-21 21:23:00,73.1,67.0,29.98,North,355,15.0,-999.0,82,-99.99,,,0.00,weatherlink.com 1.10,2013-07-21 18:23:00,
2013-07-21 21:38:00,73.0,67.0,29.98,North,355,8.0,-999.0,82,-99.99,,,0.00,weatherlink.com 1.10,2013-07-21 18:38:00,
2013-07-21 21:53:00,72.8,67.0,29.99,NNE,17,13.0,-999.0,81,-99.99,,,0.00,weatherlink.com 1.10,2013-07-21 18:53:00,
2013-07-21 22:08:00,72.8,66.0,29.99,North,5,12.0,-999.0,80,-99.99,,,0.00,weatherlink.com 1.10,2013-07-21 19:08:00,
2013-07-21 22:23:00,72.8,66.0,29.99,ENE,70,13.0,-999.0,78,-99.99,,,0.00,weatherlink.com 1.10,2013-07-21 19:23:00,
2013-07-21 22:38:00,72.7,66.0,29.99,NE,44,11.0,-999.0,78,-99.99,,,0.00,weatherlink.com 1.10,2013-07-21 19:38:00,
2013-07-21 22:53:00,72.4,65.0,29.99,North,360,7.0,-999.0,78,-99.99,,,0.00,weatherlink.com 1.10,2013-07-21 19:53:00,
2013-07-21 23:08:00,72.2,65.0,29.98,NNE,20,20.0,-999.0,78,-99.99,,,0.00,weatherlink.com 1.10,2013-07-21 20:08:00,
2013-07-21 23:23:00,71.9,65.0,29.98,NNE,14,14.0,-999.0,79,-99.99,,,0.00,weatherlink.com 1.10,2013-07-21 20:23:00,
2013-07-21 23:38:00,71.8,65.0,29.99,North,11,13.0,-999.0,79,-99.99,,,0.00,weatherlink.com 1.10,2013-07-21 20:38:00,
2013-07-21 23:53:00,71.7,65.0,29.99,NNE,18,7.0,-999.0,79,-99.99,,,0.00,weatherlink.com 1.10,2013-07-21 20:53:00,